BBC Bangkok — V2EP9 — position and weather

sailwx.info

Track history (hours):
 
Tides and Currents Weather Stations Pressure Air Temp Water Temp Dewpoint Dewpoint Depression Visibility Wind Speed Wind Dir Waves Ship Positions

BBC Bangkok

Last reported at 2017-Sep-24 04:20 UTC. Time now 2017-Sep-26 01:53 UTC.
Position N 40°08' W 009°48'.

Length 128 m; draft 5 m.

Type: Cargo ship. MMSI: 305512000.

Date/timePositionNaut miles runAvg speedWind from/ knotsBaromVisibWave heightAir tempDewpointWater temp
2017-Sep-24 04:20N 40°08' W 009°48'412.1
2017-Sep-24 03:59N 40°04' W 009°48'612.1
2017-Sep-24 03:30N 39°58' W 009°48'612.3
2017-Sep-24 02:59N 39°52' W 009°48'612.5
2017-Sep-24 02:30N 39°46' W 009°49'612.3
2017-Sep-24 02:00N 39°40' W 009°49'712.3
2017-Sep-24 01:27N 39°33' W 009°49'512.1
2017-Sep-24 01:00N 39°27' W 009°49'611.9
2017-Sep-24 00:30N 39°21' W 009°50'612.4
2017-Sep-24 00:00N 39°15' W 009°50'611.9
2017-Sep-23 23:30N 39°09' W 009°50'612.3
2017-Sep-23 23:00N 39°03' W 009°50'612.0
2017-Sep-23 22:30N 38°57' W 009°50'611.6
2017-Sep-23 22:00N 38°51' W 009°50'611.6
2017-Sep-23 21:30N 38°46' W 009°50'611.4
2017-Sep-23 21:00N 38°40' W 009°49'611.4
2017-Sep-23 20:30N 38°34' W 009°47'611.7
2017-Sep-23 20:00N 38°29' W 009°46'  
2017-Sep-21 03:28N 36°10' W 005°25'1 0.9
2017-Sep-21 02:13N 36°09' W 005°25'0 0.0
2017-Sep-21 01:58N 36°09' W 005°25'1 0.3
2017-Sep-20 23:00N 36°10' W 005°24'2 4.9
2017-Sep-20 22:30N 36°08' W 005°24'4 8.2
2017-Sep-20 22:00N 36°04' W 005°21'2 4.9
2017-Sep-20 21:30N 36°02' W 005°19'510.3
2017-Sep-20 21:00N 35°59' W 005°24'611.2
2017-Sep-20 20:30N 35°57' W 005°31'710.9
2017-Sep-20 19:52N 35°55' W 005°39'11011.8
2017-Sep-20 10:30N 36°16' W 007°53'5112.4
2017-Sep-20 06:24N 36°29' W 008°54'1211.8
2017-Sep-20 05:25N 36°32' W 009°08'2412.0
2017-Sep-20 03:24N 36°46' W 009°32'511.9
2017-Sep-20 03:00N 36°51' W 009°34'612.0
2017-Sep-20 02:30N 36°57' W 009°36'612.0
2017-Sep-20 01:59N 37°03' W 009°38'1512.1
2017-Sep-20 00:45N 37°17' W 009°43'412.4
2017-Sep-20 00:26N 37°21' W 009°44'712.5
2017-Sep-19 23:53N 37°28' W 009°45'2912.0
2017-Sep-19 21:29N 37°56' W 009°53'612.3
2017-Sep-19 21:00N 38°02' W 009°55'612.5
2017-Sep-19 20:31N 38°08' W 009°57'612.7
2017-Sep-19 20:00N 38°14' W 009°59'612.7
2017-Sep-19 19:30N 38°20' W 010°01'713.1
2017-Sep-19 19:00N 38°26' W 010°03'713.0
2017-Sep-19 18:29N 38°33' W 010°05'712.8
2017-Sep-19 17:58N 38°40' W 010°06'  
2017-Sep-17 04:45N 49°34' W 004°04'411.7
2017-Sep-17 04:22N 49°36' W 003°58'411.6
2017-Sep-17 04:00N 49°38' W 003°53'611.3
2017-Sep-17 03:30N 49°41' W 003°45'611.2
2017-Sep-17 03:00N 49°44' W 003°38'611.3
2017-Sep-17 02:30N 49°47' W 003°31'611.2
2017-Sep-17 02:00N 49°50' W 003°23'611.9
2017-Sep-17 01:30N 49°53' W 003°15'612.5
2017-Sep-17 01:00N 49°56' W 003°07'713.2
2017-Sep-17 00:30N 49°59' W 002°58'713.7
2017-Sep-17 00:01N 50°02' W 002°48'9412.6
2017-Sep-16 16:33N 50°27' W 000°27'010.4
2017-Sep-16 16:31N 50°27' W 000°26'510.8
2017-Sep-16 16:00N 50°29' W 000°18'611.4
2017-Sep-16 15:30N 50°30' W 000°09'611.9
2017-Sep-16 15:01N 50°32' W 000°00'612.3
2017-Sep-16 14:31N 50°34' E 000°09'612.6
2017-Sep-16 14:01N 50°36' E 000°19'713.0
2017-Sep-16 13:31N 50°37' E 000°28'713.1
2017-Sep-16 13:00N 50°40' E 000°38'713.2
2017-Sep-16 12:31N 50°44' E 000°46'713.0
2017-Sep-16 12:00N 50°48' E 000°55'712.5
2017-Sep-16 11:25N 50°52' E 001°04'512.1
2017-Sep-16 10:58N 50°56' E 001°11'511.7
2017-Sep-16 10:30N 50°59' E 001°18'511.1
2017-Sep-16 10:01N 51°02' E 001°24'610.9
2017-Sep-16 09:30N 51°06' E 001°31'510.6
2017-Sep-16 09:01N 51°09' E 001°37'510.7
2017-Sep-16 08:30N 51°13' E 001°44'611.1
2017-Sep-16 08:00N 51°18' E 001°49'611.8
2017-Sep-16 07:31N 51°23' E 001°53'612.3
2017-Sep-16 07:00N 51°28' E 001°59'612.7
2017-Sep-16 06:30N 51°32' E 002°06'5412.1
2017-Sep-16 02:02N 52°03' E 003°19'112.2
2017-Sep-16 01:58N 52°03' E 003°20'611.9
2017-Sep-16 01:30N 52°03' E 003°29'611.6
2017-Sep-16 00:59N 52°03' E 003°38'611.5
2017-Sep-16 00:30N 52°02' E 003°48'5 9.2
2017-Sep-16 00:00N 52°02' E 003°55'510.4
2017-Sep-15 23:30N 51°60' E 004°02'611.9
2017-Sep-15 23:00N 51°57' E 004°11'511.0
2017-Sep-15 22:31N 51°54' E 004°18'1 1.8
2017-Sep-15 21:58N 51°53' E 004°17'0 0.0
2017-Sep-15 21:28N 51°53' E 004°17'0 0.0
2017-Sep-15 20:58N 51°53' E 004°17'0 0.0
2017-Sep-15 20:25N 51°53' E 004°17'0 0.0
2017-Sep-15 19:58N 51°53' E 004°17'0 0.0
2017-Sep-15 19:28N 51°53' E 004°17'0 0.0
2017-Sep-15 18:55N 51°53' E 004°17'0 0.0
2017-Sep-15 18:28N 51°53' E 004°17'0 0.0
2017-Sep-15 17:58N 51°53' E 004°17'0 0.0
2017-Sep-15 17:28N 51°53' E 004°17'0 0.0
2017-Sep-15 16:58N 51°53' E 004°17'0 0.0
2017-Sep-15 16:25N 51°53' E 004°17'0 0.0
2017-Sep-15 15:58N 51°53' E 004°17'0 0.0
2017-Sep-15 15:28N 51°53' E 004°17'0 0.0
2017-Sep-15 14:58N 51°53' E 004°17'0 0.0
2017-Sep-15 14:28N 51°53' E 004°17'0 0.0
2017-Sep-15 13:58N 51°53' E 004°17'0 0.0
2017-Sep-15 13:25N 51°53' E 004°17'0 0.0
2017-Sep-15 12:58N 51°53' E 004°17'0 0.0
2017-Sep-15 12:25N 51°53' E 004°17'0 0.0
2017-Sep-15 11:58N 51°53' E 004°17'0 0.0
2017-Sep-15 11:28N 51°53' E 004°17'0 0.0
2017-Sep-15 10:55N 51°53' E 004°17'0 0.0
2017-Sep-15 10:25N 51°53' E 004°17'0 0.0
2017-Sep-15 09:58N 51°53' E 004°17'0 0.0
2017-Sep-15 09:25N 51°53' E 004°17'0 0.0
2017-Sep-15 08:58N 51°53' E 004°17'0 0.0
2017-Sep-15 08:28N 51°53' E 004°17'0 0.0
2017-Sep-15 07:58N 51°53' E 004°17'0 0.0
2017-Sep-15 07:28N 51°53' E 004°17'0 0.0
2017-Sep-15 06:55N 51°53' E 004°17'0 0.0
2017-Sep-15 06:25N 51°53' E 004°17'0 0.0
2017-Sep-15 05:58N 51°53' E 004°17'0 0.0
2017-Sep-15 05:28N 51°53' E 004°17'0 0.0
2017-Sep-15 04:58N 51°53' E 004°17'0 0.0
2017-Sep-15 04:28N 51°53' E 004°17'0 0.0
2017-Sep-15 03:58N 51°53' E 004°17'0 0.0
2017-Sep-15 03:28N 51°53' E 004°17'0 0.0
2017-Sep-15 02:58N 51°53' E 004°17'0 0.0
2017-Sep-15 02:28N 51°53' E 004°17'0 0.0
2017-Sep-15 01:58N 51°53' E 004°17'0 0.0
2017-Sep-15 01:28N 51°53' E 004°17'0 0.0
2017-Sep-15 00:58N 51°53' E 004°17'0 0.0
2017-Sep-15 00:28N 51°53' E 004°17'0 0.0
2017-Sep-14 23:55N 51°53' E 004°17'0 0.0
2017-Sep-14 23:28N 51°53' E 004°17'0 0.0
2017-Sep-14 22:58N 51°53' E 004°17'0 0.0
2017-Sep-14 22:28N 51°53' E 004°17'0 0.0
2017-Sep-14 21:58N 51°53' E 004°17'0 0.0
2017-Sep-14 21:28N 51°53' E 004°17'0 0.0
2017-Sep-14 20:58N 51°53' E 004°17'0 0.0
2017-Sep-14 20:28N 51°53' E 004°17'0 0.0
2017-Sep-14 19:55N 51°53' E 004°17'0 0.0
2017-Sep-14 19:28N 51°53' E 004°17'0 0.0
2017-Sep-14 18:58N 51°53' E 004°17'0 0.0
2017-Sep-14 18:28N 51°53' E 004°17'0 0.0
2017-Sep-14 17:58N 51°53' E 004°17'0 0.0
2017-Sep-14 17:28N 51°53' E 004°17'0 0.0
2017-Sep-14 16:58N 51°53' E 004°17'0 0.0
2017-Sep-14 16:25N 51°53' E 004°17'0 0.0
2017-Sep-14 15:58N 51°53' E 004°17'0 0.0
2017-Sep-14 15:28N 51°53' E 004°17'0 0.0
2017-Sep-14 14:58N 51°53' E 004°17'0 0.0
2017-Sep-14 14:25N 51°53' E 004°17'0 0.0
2017-Sep-14 13:58N 51°53' E 004°17'0 0.0
2017-Sep-14 13:28N 51°53' E 004°17'0 0.0
2017-Sep-14 12:58N 51°53' E 004°17'0 0.0
2017-Sep-14 12:25N 51°53' E 004°17'0 0.0
2017-Sep-14 11:58N 51°53' E 004°17'0 0.0
2017-Sep-14 11:28N 51°53' E 004°17'0 0.0
2017-Sep-14 10:52N 51°53' E 004°17'0 0.0
2017-Sep-14 10:30N 51°53' E 004°17'0 0.0
2017-Sep-14 10:00N 51°53' E 004°17'0 0.0
2017-Sep-14 09:30N 51°53' E 004°17'0 0.0
2017-Sep-14 09:00N 51°53' E 004°17'0 0.0
2017-Sep-14 08:30N 51°53' E 004°17'0 0.0
2017-Sep-14 08:00N 51°53' E 004°17'0 0.0
2017-Sep-14 07:30N 51°53' E 004°17'0 0.0
2017-Sep-14 07:00N 51°53' E 004°17'0 0.0
2017-Sep-14 06:30N 51°53' E 004°17'0 0.0
2017-Sep-14 06:00N 51°53' E 004°17'0 0.0
2017-Sep-14 05:30N 51°53' E 004°17'0 0.0
2017-Sep-14 05:00N 51°53' E 004°17'0 0.0
2017-Sep-14 04:30N 51°53' E 004°17'  
Track history (hours):
 
Tides and Currents Weather Stations Pressure Air Temp Water Temp Dewpoint Dewpoint Depression Visibility Wind Speed Wind Dir Waves Ship Positions

BBC Bangkok

Last reported at 2017-Sep-24 04:20 UTC. Time now 2017-Sep-26 01:53 UTC.
Position N 40°08' W 009°48'.

Length 128 m; draft 5 m.

Type: Cargo ship. MMSI: 305512000.

Date/timePositionNaut miles runAvg speedWind from/ knotsBaromVisibWave heightAir tempDewpointWater temp
2017-Sep-24 04:20N 40°08' W 009°48'412.1
2017-Sep-24 03:59N 40°04' W 009°48'612.1
2017-Sep-24 03:30N 39°58' W 009°48'612.3
2017-Sep-24 02:59N 39°52' W 009°48'612.5
2017-Sep-24 02:30N 39°46' W 009°49'612.3
2017-Sep-24 02:00N 39°40' W 009°49'712.3
2017-Sep-24 01:27N 39°33' W 009°49'512.1
2017-Sep-24 01:00N 39°27' W 009°49'611.9
2017-Sep-24 00:30N 39°21' W 009°50'612.4
2017-Sep-24 00:00N 39°15' W 009°50'611.9
2017-Sep-23 23:30N 39°09' W 009°50'612.3
2017-Sep-23 23:00N 39°03' W 009°50'612.0
2017-Sep-23 22:30N 38°57' W 009°50'611.6
2017-Sep-23 22:00N 38°51' W 009°50'611.6
2017-Sep-23 21:30N 38°46' W 009°50'611.4
2017-Sep-23 21:00N 38°40' W 009°49'611.4
2017-Sep-23 20:30N 38°34' W 009°47'611.7
2017-Sep-23 20:00N 38°29' W 009°46'  
2017-Sep-21 03:28N 36°10' W 005°25'1 0.9
2017-Sep-21 02:13N 36°09' W 005°25'0 0.0
2017-Sep-21 01:58N 36°09' W 005°25'1 0.3
2017-Sep-20 23:00N 36°10' W 005°24'2 4.9
2017-Sep-20 22:30N 36°08' W 005°24'4 8.2
2017-Sep-20 22:00N 36°04' W 005°21'2 4.9
2017-Sep-20 21:30N 36°02' W 005°19'510.3
2017-Sep-20 21:00N 35°59' W 005°24'611.2
2017-Sep-20 20:30N 35°57' W 005°31'710.9
2017-Sep-20 19:52N 35°55' W 005°39'11011.8
2017-Sep-20 10:30N 36°16' W 007°53'5112.4
2017-Sep-20 06:24N 36°29' W 008°54'1211.8
2017-Sep-20 05:25N 36°32' W 009°08'2412.0
2017-Sep-20 03:24N 36°46' W 009°32'511.9
2017-Sep-20 03:00N 36°51' W 009°34'612.0
2017-Sep-20 02:30N 36°57' W 009°36'612.0
2017-Sep-20 01:59N 37°03' W 009°38'1512.1
2017-Sep-20 00:45N 37°17' W 009°43'412.4
2017-Sep-20 00:26N 37°21' W 009°44'712.5
2017-Sep-19 23:53N 37°28' W 009°45'2912.0
2017-Sep-19 21:29N 37°56' W 009°53'612.3
2017-Sep-19 21:00N 38°02' W 009°55'612.5
2017-Sep-19 20:31N 38°08' W 009°57'612.7
2017-Sep-19 20:00N 38°14' W 009°59'612.7
2017-Sep-19 19:30N 38°20' W 010°01'713.1
2017-Sep-19 19:00N 38°26' W 010°03'713.0
2017-Sep-19 18:29N 38°33' W 010°05'712.8
2017-Sep-19 17:58N 38°40' W 010°06'  
2017-Sep-17 04:45N 49°34' W 004°04'411.7
2017-Sep-17 04:22N 49°36' W 003°58'411.6
2017-Sep-17 04:00N 49°38' W 003°53'611.3
2017-Sep-17 03:30N 49°41' W 003°45'611.2
2017-Sep-17 03:00N 49°44' W 003°38'611.3
2017-Sep-17 02:30N 49°47' W 003°31'611.2
2017-Sep-17 02:00N 49°50' W 003°23'611.9
2017-Sep-17 01:30N 49°53' W 003°15'612.5
2017-Sep-17 01:00N 49°56' W 003°07'713.2
2017-Sep-17 00:30N 49°59' W 002°58'713.7
2017-Sep-17 00:01N 50°02' W 002°48'9412.6
2017-Sep-16 16:33N 50°27' W 000°27'010.4
2017-Sep-16 16:31N 50°27' W 000°26'510.8
2017-Sep-16 16:00N 50°29' W 000°18'611.4
2017-Sep-16 15:30N 50°30' W 000°09'611.9
2017-Sep-16 15:01N 50°32' W 000°00'612.3
2017-Sep-16 14:31N 50°34' E 000°09'612.6
2017-Sep-16 14:01N 50°36' E 000°19'713.0
2017-Sep-16 13:31N 50°37' E 000°28'713.1
2017-Sep-16 13:00N 50°40' E 000°38'713.2
2017-Sep-16 12:31N 50°44' E 000°46'713.0
2017-Sep-16 12:00N 50°48' E 000°55'712.5
2017-Sep-16 11:25N 50°52' E 001°04'512.1
2017-Sep-16 10:58N 50°56' E 001°11'511.7
2017-Sep-16 10:30N 50°59' E 001°18'511.1
2017-Sep-16 10:01N 51°02' E 001°24'610.9
2017-Sep-16 09:30N 51°06' E 001°31'510.6
2017-Sep-16 09:01N 51°09' E 001°37'510.7
2017-Sep-16 08:30N 51°13' E 001°44'611.1
2017-Sep-16 08:00N 51°18' E 001°49'611.8
2017-Sep-16 07:31N 51°23' E 001°53'612.3
2017-Sep-16 07:00N 51°28' E 001°59'612.7
2017-Sep-16 06:30N 51°32' E 002°06'5412.1
2017-Sep-16 02:02N 52°03' E 003°19'112.2
2017-Sep-16 01:58N 52°03' E 003°20'611.9
2017-Sep-16 01:30N 52°03' E 003°29'611.6
2017-Sep-16 00:59N 52°03' E 003°38'611.5
2017-Sep-16 00:30N 52°02' E 003°48'5 9.2
2017-Sep-16 00:00N 52°02' E 003°55'510.4
2017-Sep-15 23:30N 51°60' E 004°02'611.9
2017-Sep-15 23:00N 51°57' E 004°11'511.0
2017-Sep-15 22:31N 51°54' E 004°18'1 1.8
2017-Sep-15 21:58N 51°53' E 004°17'0 0.0
2017-Sep-15 21:28N 51°53' E 004°17'0 0.0
2017-Sep-15 20:58N 51°53' E 004°17'0 0.0
2017-Sep-15 20:25N 51°53' E 004°17'0 0.0
2017-Sep-15 19:58N 51°53' E 004°17'0 0.0
2017-Sep-15 19:28N 51°53' E 004°17'0 0.0
2017-Sep-15 18:55N 51°53' E 004°17'0 0.0
2017-Sep-15 18:28N 51°53' E 004°17'0 0.0
2017-Sep-15 17:58N 51°53' E 004°17'0 0.0
2017-Sep-15 17:28N 51°53' E 004°17'0 0.0
2017-Sep-15 16:58N 51°53' E 004°17'0 0.0
2017-Sep-15 16:25N 51°53' E 004°17'0 0.0
2017-Sep-15 15:58N 51°53' E 004°17'0 0.0
2017-Sep-15 15:28N 51°53' E 004°17'0 0.0
2017-Sep-15 14:58N 51°53' E 004°17'0 0.0
2017-Sep-15 14:28N 51°53' E 004°17'0 0.0
2017-Sep-15 13:58N 51°53' E 004°17'0 0.0
2017-Sep-15 13:25N 51°53' E 004°17'0 0.0
2017-Sep-15 12:58N 51°53' E 004°17'0 0.0
2017-Sep-15 12:25N 51°53' E 004°17'0 0.0
2017-Sep-15 11:58N 51°53' E 004°17'0 0.0
2017-Sep-15 11:28N 51°53' E 004°17'0 0.0
2017-Sep-15 10:55N 51°53' E 004°17'0 0.0
2017-Sep-15 10:25N 51°53' E 004°17'0 0.0
2017-Sep-15 09:58N 51°53' E 004°17'0 0.0
2017-Sep-15 09:25N 51°53' E 004°17'0 0.0
2017-Sep-15 08:58N 51°53' E 004°17'0 0.0
2017-Sep-15 08:28N 51°53' E 004°17'0 0.0
2017-Sep-15 07:58N 51°53' E 004°17'0 0.0
2017-Sep-15 07:28N 51°53' E 004°17'0 0.0
2017-Sep-15 06:55N 51°53' E 004°17'0 0.0
2017-Sep-15 06:25N 51°53' E 004°17'0 0.0
2017-Sep-15 05:58N 51°53' E 004°17'0 0.0
2017-Sep-15 05:28N 51°53' E 004°17'0 0.0
2017-Sep-15 04:58N 51°53' E 004°17'0 0.0
2017-Sep-15 04:28N 51°53' E 004°17'0 0.0
2017-Sep-15 03:58N 51°53' E 004°17'0 0.0
2017-Sep-15 03:28N 51°53' E 004°17'0 0.0
2017-Sep-15 02:58N 51°53' E 004°17'0 0.0
2017-Sep-15 02:28N 51°53' E 004°17'0 0.0
2017-Sep-15 01:58N 51°53' E 004°17'0 0.0
2017-Sep-15 01:28N 51°53' E 004°17'0 0.0
2017-Sep-15 00:58N 51°53' E 004°17'0 0.0
2017-Sep-15 00:28N 51°53' E 004°17'0 0.0
2017-Sep-14 23:55N 51°53' E 004°17'0 0.0
2017-Sep-14 23:28N 51°53' E 004°17'0 0.0
2017-Sep-14 22:58N 51°53' E 004°17'0 0.0
2017-Sep-14 22:28N 51°53' E 004°17'0 0.0
2017-Sep-14 21:58N 51°53' E 004°17'0 0.0
2017-Sep-14 21:28N 51°53' E 004°17'0 0.0
2017-Sep-14 20:58N 51°53' E 004°17'0 0.0
2017-Sep-14 20:28N 51°53' E 004°17'0 0.0
2017-Sep-14 19:55N 51°53' E 004°17'0 0.0
2017-Sep-14 19:28N 51°53' E 004°17'0 0.0
2017-Sep-14 18:58N 51°53' E 004°17'0 0.0
2017-Sep-14 18:28N 51°53' E 004°17'0 0.0
2017-Sep-14 17:58N 51°53' E 004°17'0 0.0
2017-Sep-14 17:28N 51°53' E 004°17'0 0.0
2017-Sep-14 16:58N 51°53' E 004°17'0 0.0
2017-Sep-14 16:25N 51°53' E 004°17'0 0.0
2017-Sep-14 15:58N 51°53' E 004°17'0 0.0
2017-Sep-14 15:28N 51°53' E 004°17'0 0.0
2017-Sep-14 14:58N 51°53' E 004°17'0 0.0
2017-Sep-14 14:25N 51°53' E 004°17'0 0.0
2017-Sep-14 13:58N 51°53' E 004°17'0 0.0
2017-Sep-14 13:28N 51°53' E 004°17'0 0.0
2017-Sep-14 12:58N 51°53' E 004°17'0 0.0
2017-Sep-14 12:25N 51°53' E 004°17'0 0.0
2017-Sep-14 11:58N 51°53' E 004°17'0 0.0
2017-Sep-14 11:28N 51°53' E 004°17'0 0.0
2017-Sep-14 10:52N 51°53' E 004°17'0 0.0
2017-Sep-14 10:30N 51°53' E 004°17'0 0.0
2017-Sep-14 10:00N 51°53' E 004°17'0 0.0
2017-Sep-14 09:30N 51°53' E 004°17'0 0.0
2017-Sep-14 09:00N 51°53' E 004°17'0 0.0
2017-Sep-14 08:30N 51°53' E 004°17'0 0.0
2017-Sep-14 08:00N 51°53' E 004°17'0 0.0
2017-Sep-14 07:30N 51°53' E 004°17'0 0.0
2017-Sep-14 07:00N 51°53' E 004°17'0 0.0
2017-Sep-14 06:30N 51°53' E 004°17'0 0.0
2017-Sep-14 06:00N 51°53' E 004°17'0 0.0
2017-Sep-14 05:30N 51°53' E 004°17'0 0.0
2017-Sep-14 05:00N 51°53' E 004°17'0 0.0
2017-Sep-14 04:30N 51°53' E 004°17'  

Dump ship's entire track history